createdAt,value
2023-01-15T00:00:28.988Z,3.10
2023-01-15T00:02:56.013Z,2.97
2023-01-15T00:05:22.628Z,2.85
2023-01-15T00:07:49.198Z,3.33
2023-01-15T00:10:18.336Z,2.95
2023-01-15T00:12:44.867Z,2.97
2023-01-15T00:15:14.390Z,3.07
2023-01-15T00:17:41.131Z,3.70
2023-01-15T00:20:09.565Z,3.90
2023-01-15T00:22:36.269Z,4.60
2023-01-15T00:25:03.558Z,4.55
2023-01-15T00:27:31.472Z,3.80
2023-01-15T00:29:58.074Z,3.65
2023-01-15T00:32:24.651Z,3.33
2023-01-15T00:34:51.257Z,4.00
2023-01-15T00:37:17.835Z,2.88
2023-01-15T00:39:44.562Z,3.23
2023-01-15T00:42:11.894Z,3.28
2023-01-15T00:44:40.009Z,2.42
2023-01-15T00:47:06.552Z,2.38
2023-01-15T00:49:33.119Z,1.95
2023-01-15T00:51:59.861Z,1.83
2023-01-15T00:54:26.482Z,1.80
2023-01-15T00:56:53.069Z,2.85
2023-01-15T00:59:19.647Z,1.98
2023-01-15T01:01:47.807Z,1.70
2023-01-15T01:04:14.561Z,1.60
2023-01-15T01:06:41.194Z,1.48
2023-01-15T01:09:07.816Z,2.13
2023-01-15T01:11:34.628Z,2.22
2023-01-15T01:14:01.934Z,2.28
2023-01-15T01:16:31.355Z,1.80
2023-01-15T01:19:00.862Z,2.45
2023-01-15T01:21:28.464Z,3.67
2023-01-15T01:23:55.533Z,2.28
2023-01-15T01:26:22.088Z,2.17
2023-01-15T01:28:49.829Z,1.97
2023-01-15T01:31:17.169Z,2.05
2023-01-15T01:33:43.717Z,2.17
2023-01-15T01:36:11.720Z,1.90
2023-01-15T01:38:38.477Z,2.08
2023-01-15T01:41:05.390Z,1.70
2023-01-15T01:43:52.581Z,1.75
2023-01-15T01:46:19.198Z,1.60
2023-01-15T01:48:47.594Z,2.22
2023-01-15T01:51:16.460Z,1.85
2023-01-15T01:53:43.550Z,1.93
2023-01-15T01:56:11.008Z,1.80
2023-01-15T01:58:38.549Z,1.90
2023-01-15T02:01:05.791Z,2.70
2023-01-15T02:03:35.691Z,1.40
2023-01-15T02:06:06.556Z,3.23
2023-01-15T02:08:35.331Z,3.05
2023-01-15T02:11:02.274Z,2.83
2023-01-15T02:13:36.759Z,2.50
2023-01-15T02:16:11.066Z,2.00
2023-01-15T02:18:46.432Z,2.13
2023-01-15T02:21:21.460Z,1.90
2023-01-15T02:24:03.214Z,2.53
2023-01-15T02:27:05.784Z,2.13
2023-01-15T02:29:44.402Z,1.70
2023-01-15T02:32:15.231Z,3.10
2023-01-15T02:34:47.512Z,2.45
2023-01-15T02:37:18.857Z,1.58
2023-01-15T02:39:47.856Z,1.15
2023-01-15T02:42:17.926Z,1.33
2023-01-15T02:44:48.452Z,1.43
2023-01-15T02:47:18.961Z,1.98
2023-01-15T02:49:47.752Z,1.75
2023-01-15T02:52:19.162Z,2.70
2023-01-15T02:54:53.268Z,3.15
2023-01-15T02:57:24.643Z,1.07
2023-01-15T02:59:53.836Z,1.60
2023-01-15T03:02:28.030Z,1.33
2023-01-15T03:05:00.358Z,2.03
2023-01-15T03:07:36.461Z,1.45
2023-01-15T03:10:04.535Z,1.50
2023-01-15T03:12:41.426Z,1.45
2023-01-15T03:15:13.099Z,2.25
2023-01-15T03:17:48.591Z,1.40
2023-01-15T03:20:20.321Z,2.92
2023-01-15T03:22:52.207Z,1.33
2023-01-15T03:25:23.645Z,1.20
2023-01-15T03:27:56.099Z,1.65
2023-01-15T03:30:23.658Z,2.15
2023-01-15T03:32:50.465Z,2.03
2023-01-15T03:35:42.424Z,1.90
2023-01-15T03:38:09.107Z,1.30
2023-01-15T03:40:40.718Z,1.63
2023-01-15T03:43:15.054Z,1.35
2023-01-15T03:45:43.175Z,1.40
2023-01-15T03:48:17.270Z,1.83
2023-01-15T03:50:49.781Z,2.03
2023-01-15T03:53:21.401Z,1.33
2023-01-15T03:55:54.221Z,1.55
2023-01-15T03:58:27.335Z,1.25
2023-01-15T04:00:57.575Z,1.43
2023-01-15T04:03:25.744Z,1.40
2023-01-15T04:05:54.851Z,1.70
2023-01-15T04:08:22.325Z,1.08
2023-01-15T04:10:53.371Z,1.10
2023-01-15T04:13:20.201Z,2.07
2023-01-15T04:15:48.354Z,1.73
2023-01-15T04:18:15.083Z,2.05
2023-01-15T04:20:42.019Z,1.60
2023-01-15T04:23:08.780Z,1.30
2023-01-15T04:25:35.524Z,1.40
2023-01-15T04:28:02.069Z,1.10
2023-01-15T04:30:28.670Z,1.30
2023-01-15T04:32:56.595Z,2.08
2023-01-15T04:35:23.250Z,1.50
2023-01-15T04:37:49.785Z,1.33
2023-01-15T04:40:16.665Z,1.33
2023-01-15T04:42:43.180Z,1.65
2023-01-15T04:45:10.664Z,1.60
2023-01-15T04:47:37.200Z,1.80
2023-01-15T04:50:05.787Z,1.57
2023-01-15T04:52:32.515Z,1.63
2023-01-15T04:54:59.117Z,1.50
2023-01-15T04:57:25.665Z,1.38
2023-01-15T04:59:52.350Z,1.50
2023-01-15T05:02:19.053Z,1.60
2023-01-15T05:04:45.859Z,1.90
2023-01-15T05:07:13.725Z,1.45
2023-01-15T05:09:41.529Z,2.85
2023-01-15T05:12:08.770Z,1.48
2023-01-15T05:14:35.318Z,2.00
2023-01-15T05:17:01.879Z,2.08
2023-01-15T05:19:28.670Z,2.25
2023-01-15T05:21:55.482Z,3.58
2023-01-15T05:24:23.389Z,1.85
2023-01-15T05:26:50.037Z,4.83
2023-01-15T05:29:16.557Z,2.38
2023-01-15T05:31:43.277Z,2.28
2023-01-15T05:34:11.124Z,1.50
2023-01-15T05:36:37.941Z,2.10
2023-01-15T05:39:05.046Z,1.30
2023-01-15T05:41:33.229Z,2.63
2023-01-15T05:44:01.645Z,2.15
2023-01-15T05:46:28.695Z,2.58
2023-01-15T05:48:55.337Z,2.15
2023-01-15T05:51:22.053Z,2.17
2023-01-15T05:53:48.744Z,2.88
2023-01-15T05:56:15.333Z,1.88
2023-01-15T05:58:43.446Z,3.20
2023-01-15T06:01:11.769Z,2.13
2023-01-15T06:03:38.354Z,2.77
2023-01-15T06:06:05.304Z,1.80
2023-01-15T06:08:32.170Z,1.80
2023-01-15T06:10:59.031Z,1.88
2023-01-15T06:13:25.645Z,2.72
2023-01-15T06:15:53.572Z,3.10
2023-01-15T06:18:20.121Z,1.67
2023-01-15T06:20:46.635Z,3.30
2023-01-15T06:23:13.194Z,1.98
2023-01-15T06:25:39.721Z,3.38
2023-01-15T06:28:07.491Z,2.47
2023-01-15T06:30:34.688Z,2.38
2023-01-15T06:33:02.930Z,2.50
2023-01-15T06:35:29.486Z,3.72
2023-01-15T06:37:56.054Z,2.20
2023-01-15T06:40:22.789Z,2.37
2023-01-15T06:42:49.731Z,2.58
2023-01-15T06:45:16.582Z,3.15
2023-01-15T06:47:43.173Z,2.30
2023-01-15T06:50:11.795Z,3.00
2023-01-15T06:52:38.591Z,5.10
2023-01-15T06:55:06.002Z,2.70
2023-01-15T06:57:32.653Z,3.42
2023-01-15T06:59:59.205Z,3.30
2023-01-15T07:02:25.769Z,4.88
2023-01-15T07:04:52.405Z,1.40
2023-01-15T07:07:20.962Z,1.85
2023-01-15T07:09:47.676Z,2.80
2023-01-15T07:12:14.383Z,2.45
2023-01-15T07:14:40.940Z,3.90
2023-01-15T07:17:07.499Z,3.30
2023-01-15T07:19:34.038Z,2.65
2023-01-15T07:22:00.669Z,3.80
2023-01-15T07:24:28.842Z,2.10
2023-01-15T07:26:55.413Z,2.58
2023-01-15T07:29:22.105Z,1.30
2023-01-15T07:31:48.641Z,2.70
2023-01-15T07:34:15.354Z,3.00
2023-01-15T07:36:42.479Z,2.38
2023-01-15T07:39:11.239Z,1.90
2023-01-15T07:41:39.237Z,2.23
2023-01-15T07:44:05.821Z,1.83
2023-01-15T07:46:32.484Z,2.28
2023-01-15T07:48:59.037Z,1.65
2023-01-15T07:51:25.579Z,2.35
2023-01-15T07:53:52.315Z,6.03
2023-01-15T07:56:18.852Z,2.35
2023-01-15T07:58:46.906Z,2.83
2023-01-15T08:01:13.698Z,2.50
2023-01-15T08:03:40.360Z,2.13
2023-01-15T08:06:07.446Z,2.80
2023-01-15T08:08:34.011Z,2.17
2023-01-15T08:11:01.945Z,4.22
2023-01-15T08:13:28.578Z,2.80
2023-01-15T08:15:56.693Z,2.38
2023-01-15T08:18:23.250Z,2.30
2023-01-15T08:20:49.825Z,2.65
2023-01-15T08:23:16.389Z,3.45
2023-01-15T08:25:43.066Z,5.15
2023-01-15T08:28:09.633Z,4.43
2023-01-15T08:30:36.234Z,2.33
2023-01-15T08:33:04.315Z,2.78
2023-01-15T08:35:31.043Z,4.05
2023-01-15T08:37:57.629Z,2.17
2023-01-15T08:40:24.368Z,2.78
2023-01-15T08:42:51.095Z,3.47
2023-01-15T08:45:17.688Z,3.70
2023-01-15T08:47:44.216Z,3.30
2023-01-15T08:50:12.240Z,2.80
2023-01-15T08:52:38.923Z,3.08
2023-01-15T08:55:07.689Z,4.83
2023-01-15T08:57:34.489Z,2.78
2023-01-15T09:00:01.081Z,4.32
2023-01-15T09:02:27.824Z,2.63
2023-01-15T09:04:54.386Z,2.75
2023-01-15T09:07:22.644Z,3.10
2023-01-15T09:09:49.401Z,1.95
2023-01-15T09:12:15.994Z,2.00
2023-01-15T09:14:57.113Z,4.05
2023-01-15T09:17:28.797Z,2.80
2023-01-15T09:19:55.343Z,2.67
2023-01-15T09:22:23.358Z,3.80
2023-01-15T09:24:49.934Z,3.05
2023-01-15T09:27:16.657Z,3.15
2023-01-15T09:29:43.221Z,2.63
2023-01-15T09:32:09.829Z,2.63
2023-01-15T09:34:36.414Z,3.55
2023-01-15T09:37:03.172Z,2.10
2023-01-15T09:39:31.122Z,3.60
2023-01-15T09:42:09.276Z,1.90
2023-01-15T09:44:49.967Z,1.67
2023-01-15T09:47:23.932Z,3.33
2023-01-15T09:50:15.685Z,2.92
2023-01-15T09:52:59.904Z,3.10
2023-01-15T09:55:30.920Z,1.17
2023-01-15T09:58:01.904Z,1.77
2023-01-15T10:00:35.534Z,2.50
2023-01-15T10:03:07.323Z,3.13
2023-01-15T10:05:38.177Z,1.48
2023-01-15T10:08:11.254Z,5.85
2023-01-15T10:10:45.252Z,6.07
2023-01-15T10:13:19.674Z,4.80
2023-01-15T10:15:48.038Z,7.15
2023-01-15T10:18:18.405Z,3.15
2023-01-15T10:20:53.163Z,4.05
2023-01-15T10:23:34.589Z,2.67
2023-01-15T10:26:12.183Z,2.08
2023-01-15T10:28:58.622Z,3.08
2023-01-15T10:31:39.773Z,4.10
2023-01-15T10:34:22.859Z,3.22
2023-01-15T10:36:55.963Z,1.93
2023-01-15T10:39:30.271Z,3.55
2023-01-15T10:42:11.667Z,2.30
2023-01-15T10:44:48.651Z,1.85
2023-01-15T10:47:22.598Z,2.33
2023-01-15T10:49:50.275Z,2.60
2023-01-15T10:52:25.242Z,2.25
2023-01-15T10:54:58.337Z,2.60
2023-01-15T10:57:41.825Z,2.17
2023-01-15T11:00:12.208Z,3.67
2023-01-15T11:02:42.440Z,3.70
2023-01-15T11:05:14.589Z,2.00
2023-01-15T11:08:09.151Z,4.15
2023-01-15T11:10:32.033Z,4.32
2023-01-15T11:13:12.342Z,1.98
2023-01-15T11:15:39.995Z,4.17
2023-01-15T11:18:13.692Z,3.33
2023-01-15T11:20:45.093Z,4.97
2023-01-15T11:23:15.863Z,2.75
2023-01-15T11:25:49.281Z,3.90
2023-01-15T11:28:19.973Z,5.50
2023-01-15T11:30:54.242Z,3.17
2023-01-15T11:33:25.561Z,5.97
2023-01-15T11:35:53.255Z,4.50
2023-01-15T11:38:20.005Z,6.75
2023-01-15T11:40:53.591Z,7.23
2023-01-15T11:43:23.627Z,4.03
2023-01-15T11:45:52.856Z,3.17
2023-01-15T11:48:22.626Z,3.30
2023-01-15T11:50:54.945Z,5.28
2023-01-15T11:53:25.030Z,3.50
2023-01-15T11:55:59.256Z,3.63
2023-01-15T11:58:28.964Z,3.78
2023-01-15T12:00:56.572Z,4.63
2023-01-15T12:03:30.470Z,3.83
2023-01-15T12:05:59.917Z,3.23
2023-01-15T12:08:40.076Z,3.00
2023-01-15T12:11:26.440Z,5.47
2023-01-15T12:14:08.093Z,4.13
2023-01-15T12:16:42.336Z,4.72
2023-01-15T12:19:17.177Z,5.77
2023-01-15T12:22:12.630Z,8.75
2023-01-15T12:24:56.819Z,8.32
2023-01-15T12:27:37.955Z,5.35
2023-01-15T12:30:19.237Z,8.68
2023-01-15T12:32:52.601Z,7.77
2023-01-15T12:35:33.529Z,5.03
2023-01-15T12:38:11.977Z,6.20
2023-01-15T12:40:47.472Z,8.60
2023-01-15T12:43:19.399Z,5.20
2023-01-15T12:45:52.076Z,4.70
2023-01-15T12:48:25.963Z,5.07
2023-01-15T12:50:55.260Z,5.13
2023-01-15T12:53:25.250Z,5.70
2023-01-15T12:55:57.646Z,3.83
2023-01-15T12:58:37.282Z,4.60
2023-01-15T13:01:14.098Z,5.03
2023-01-15T13:03:50.962Z,3.40
2023-01-15T13:06:19.004Z,4.70
2023-01-15T13:08:55.257Z,5.80
2023-01-15T13:11:22.311Z,3.67
2023-01-15T13:13:48.894Z,4.68
2023-01-15T13:16:22.167Z,5.88
2023-01-15T13:18:58.425Z,8.45
2023-01-15T13:21:28.676Z,3.25
2023-01-15T13:24:18.397Z,5.17
2023-01-15T13:27:00.381Z,3.75
2023-01-15T13:29:41.748Z,3.67
2023-01-15T13:32:14.565Z,4.75
2023-01-15T13:34:46.329Z,5.55
2023-01-15T13:37:22.136Z,3.67
2023-01-15T13:39:50.911Z,5.13
2023-01-15T13:42:20.793Z,6.10
2023-01-15T13:44:51.171Z,3.83
2023-01-15T13:47:22.090Z,5.18
2023-01-15T13:49:52.436Z,3.67
2023-01-15T13:52:24.729Z,5.75
2023-01-15T13:54:52.797Z,4.18
2023-01-15T13:57:26.142Z,4.35
2023-01-15T13:59:52.708Z,4.85
2023-01-15T14:02:31.296Z,4.30
2023-01-15T14:04:58.572Z,6.40
2023-01-15T14:07:34.168Z,4.82
2023-01-15T14:10:24.965Z,4.10
2023-01-15T14:13:07.907Z,7.25
2023-01-15T14:15:45.024Z,5.60
2023-01-15T14:18:26.848Z,3.92
2023-01-15T14:21:09.723Z,5.03
2023-01-15T14:23:59.056Z,5.38
2023-01-15T14:26:39.850Z,7.30
2023-01-15T14:29:34.088Z,3.07
2023-01-15T14:32:09.318Z,5.05
2023-01-15T14:34:38.263Z,3.90
2023-01-15T14:37:07.331Z,4.20
2023-01-15T14:39:40.067Z,6.00
2023-01-15T14:42:13.061Z,4.70
2023-01-15T14:44:43.289Z,4.85
2023-01-15T14:47:23.053Z,5.75
2023-01-15T14:50:02.193Z,3.95
2023-01-15T14:52:29.201Z,4.72
2023-01-15T14:54:58.491Z,4.57
2023-01-15T14:57:25.611Z,5.72
2023-01-15T14:59:57.106Z,5.25
2023-01-15T15:02:30.062Z,4.15
2023-01-15T15:05:00.106Z,4.28
2023-01-15T15:07:35.371Z,5.53
2023-01-15T15:10:07.129Z,3.55
2023-01-15T15:12:39.620Z,5.55
2023-01-15T15:15:13.551Z,5.40
2023-01-15T15:17:49.923Z,4.05
2023-01-15T15:20:26.731Z,4.30
2023-01-15T15:22:59.164Z,3.63
2023-01-15T15:25:29.596Z,6.40
2023-01-15T15:28:04.434Z,4.28
2023-01-15T15:30:33.612Z,6.80
2023-01-15T15:33:00.954Z,4.17
2023-01-15T15:35:30.535Z,3.45
2023-01-15T15:38:03.325Z,3.83
2023-01-15T15:40:33.157Z,4.18
2023-01-15T15:43:05.462Z,3.38
2023-01-15T15:45:32.123Z,4.83
2023-01-15T15:47:58.718Z,6.35
2023-01-15T15:50:27.691Z,4.85
2023-01-15T15:52:54.888Z,3.80
2023-01-15T15:55:25.155Z,4.40
2023-01-15T15:57:55.412Z,4.10
2023-01-15T16:00:29.690Z,4.78
2023-01-15T16:02:56.742Z,5.55
2023-01-15T16:05:25.657Z,3.83
2023-01-15T16:07:52.934Z,4.30
2023-01-15T16:10:32.991Z,7.23
2023-01-15T16:13:03.196Z,5.47
2023-01-15T16:15:33.357Z,6.50
2023-01-15T16:18:02.213Z,4.00
2023-01-15T16:20:28.837Z,5.57
2023-01-15T16:22:57.207Z,5.50
2023-01-15T16:25:27.071Z,7.30
2023-01-15T16:27:55.165Z,4.80
2023-01-15T16:30:22.559Z,4.75
2023-01-15T16:32:50.995Z,4.95
2023-01-15T16:35:20.362Z,5.53
2023-01-15T16:37:48.841Z,6.22
2023-01-15T16:40:22.795Z,6.65
2023-01-15T16:43:03.721Z,4.43
2023-01-15T16:45:30.818Z,5.22
2023-01-15T16:48:03.070Z,6.20
2023-01-15T16:50:32.470Z,4.55
2023-01-15T16:53:00.535Z,4.55
2023-01-15T16:55:46.396Z,5.10
2023-01-15T16:58:37.093Z,5.95
2023-01-15T17:01:32.109Z,3.10
2023-01-15T17:03:58.917Z,7.05
2023-01-15T17:06:26.975Z,5.38
2023-01-15T17:08:55.417Z,5.25
2023-01-15T17:11:24.749Z,3.85
2023-01-15T17:14:08.101Z,5.13
2023-01-15T17:16:34.709Z,3.72
2023-01-15T17:19:05.098Z,3.70
2023-01-15T17:21:31.725Z,5.88
2023-01-15T17:23:58.402Z,4.03
2023-01-15T17:26:26.667Z,6.40
2023-01-15T17:28:54.655Z,3.58
2023-01-15T17:31:26.724Z,7.38
2023-01-15T17:33:53.378Z,6.68
2023-01-15T17:36:20.288Z,3.53
2023-01-15T17:38:47.163Z,3.70
2023-01-15T17:41:15.461Z,4.97
2023-01-15T17:43:42.533Z,5.07
2023-01-15T17:46:10.483Z,2.70
2023-01-15T17:48:37.363Z,5.05
2023-01-15T17:51:05.935Z,4.80
2023-01-15T17:53:32.928Z,5.03
2023-01-15T17:55:59.552Z,3.42
2023-01-15T17:58:26.155Z,6.22
2023-01-15T18:00:53.787Z,5.30
2023-01-15T18:03:23.524Z,7.53
2023-01-15T18:05:50.593Z,4.82
2023-01-15T18:08:18.046Z,6.75
2023-01-15T18:10:44.869Z,5.45
2023-01-15T18:13:11.452Z,5.47
2023-01-15T18:15:38.472Z,2.97
2023-01-15T18:18:05.073Z,4.88
2023-01-15T18:20:33.033Z,5.63
2023-01-15T18:22:59.588Z,4.13
2023-01-15T18:25:26.561Z,4.63
2023-01-15T18:27:53.296Z,5.07
2023-01-15T18:30:19.983Z,6.72
2023-01-15T18:32:46.780Z,6.25
2023-01-15T18:35:13.393Z,7.40
2023-01-15T18:37:41.305Z,5.80
2023-01-15T18:40:09.200Z,6.20
2023-01-15T18:42:38.158Z,6.07
2023-01-15T18:45:05.266Z,6.43
2023-01-15T18:47:31.823Z,3.72
2023-01-15T18:49:58.371Z,4.47
2023-01-15T18:52:24.948Z,3.17
2023-01-15T18:54:53.190Z,3.67
2023-01-15T18:57:19.963Z,5.28
2023-01-15T18:59:46.684Z,7.07
2023-01-15T19:02:13.393Z,5.35
2023-01-15T19:04:40.221Z,4.27
2023-01-15T19:07:07.105Z,4.35
2023-01-15T19:09:33.902Z,6.63
2023-01-15T19:12:01.847Z,6.15
2023-01-15T19:14:28.517Z,4.95
2023-01-15T19:16:55.297Z,4.30
2023-01-15T19:19:22.134Z,5.20
2023-01-15T19:21:48.800Z,5.22
2023-01-15T19:24:15.396Z,4.75
2023-01-15T19:26:41.953Z,5.30
2023-01-15T19:29:09.868Z,4.40
2023-01-15T19:31:37.061Z,5.50
2023-01-15T19:34:31.724Z,7.05
2023-01-15T19:36:50.457Z,5.22
2023-01-15T19:39:17.763Z,4.68
2023-01-15T19:41:44.372Z,4.63
2023-01-15T19:44:12.361Z,4.38
2023-01-15T19:46:39.059Z,5.90
2023-01-15T19:49:10.629Z,4.78
2023-01-15T19:51:37.247Z,8.23
2023-01-15T19:54:06.250Z,5.50
2023-01-15T19:56:33.010Z,5.47
2023-01-15T19:58:59.623Z,4.82
2023-01-15T20:01:27.707Z,5.22
2023-01-15T20:03:54.319Z,4.20
2023-01-15T20:06:20.933Z,3.23
2023-01-15T20:08:48.509Z,5.88
2023-01-15T20:11:15.100Z,4.43
2023-01-15T20:13:41.819Z,3.95
2023-01-15T20:16:11.035Z,2.70
2023-01-15T20:18:39.531Z,3.90
2023-01-15T20:21:06.843Z,3.70
2023-01-15T20:23:34.144Z,4.80
2023-01-15T20:26:01.722Z,4.18
2023-01-15T20:28:28.348Z,3.28
2023-01-15T20:30:54.924Z,4.00
2023-01-15T20:33:21.772Z,3.80
2023-01-15T20:35:49.747Z,3.50
2023-01-15T20:38:16.312Z,5.28
2023-01-15T20:40:42.882Z,5.88
2023-01-15T20:43:09.800Z,5.30
2023-01-15T20:45:36.948Z,5.40
2023-01-15T20:48:04.276Z,4.82
2023-01-15T20:50:33.262Z,4.90
2023-01-15T20:53:01.636Z,5.30
2023-01-15T20:55:30.157Z,4.10
2023-01-15T20:57:57.706Z,4.28
2023-01-15T21:00:24.925Z,6.18
2023-01-15T21:02:51.584Z,5.88
2023-01-15T21:05:18.345Z,5.45
2023-01-15T21:07:45.035Z,4.67
2023-01-15T21:10:14.127Z,7.20
2023-01-15T21:12:41.044Z,4.57
2023-01-15T21:15:09.013Z,3.63
2023-01-15T21:17:36.844Z,5.82
2023-01-15T21:20:04.407Z,3.63
2023-01-15T21:22:31.079Z,5.75
2023-01-15T21:24:59.373Z,5.60
2023-01-15T21:27:27.420Z,4.32
2023-01-15T21:29:54.051Z,3.83
2023-01-15T21:32:20.939Z,3.93
2023-01-15T21:34:47.445Z,5.93
2023-01-15T21:37:15.027Z,4.50
2023-01-15T21:39:41.602Z,5.68
2023-01-15T21:42:12.824Z,5.32
2023-01-15T21:44:41.662Z,5.93
2023-01-15T21:47:10.975Z,4.30
2023-01-15T21:49:37.960Z,3.50
2023-01-15T21:52:07.994Z,4.30
2023-01-15T21:54:35.005Z,3.75
2023-01-15T21:57:02.197Z,4.93
2023-01-15T21:59:28.914Z,4.65
2023-01-15T22:01:59.134Z,6.30
2023-01-15T22:04:30.572Z,4.63
2023-01-15T22:06:57.104Z,6.38
2023-01-15T22:09:23.700Z,3.27
2023-01-15T22:11:50.637Z,6.57
2023-01-15T22:14:18.805Z,5.82
2023-01-15T22:16:46.950Z,4.18
2023-01-15T22:19:15.209Z,6.38
2023-01-15T22:21:41.821Z,6.27
2023-01-15T22:24:08.519Z,5.43
2023-01-15T22:26:35.040Z,6.47
2023-01-15T22:29:01.627Z,4.00
2023-01-15T22:31:28.394Z,3.42
2023-01-15T22:33:57.720Z,7.50
2023-01-15T22:36:25.597Z,6.80
2023-01-15T22:38:54.693Z,5.85
2023-01-15T22:41:21.541Z,4.28
2023-01-15T22:43:48.085Z,4.65
2023-01-15T22:46:14.877Z,4.37
2023-01-15T22:48:41.950Z,3.45
2023-01-15T22:51:08.479Z,4.75
2023-01-15T22:53:36.369Z,4.93
2023-01-15T22:56:03.121Z,3.95
2023-01-15T22:58:29.686Z,5.17
2023-01-15T23:00:56.483Z,6.43
2023-01-15T23:03:23.527Z,6.65
2023-01-15T23:05:50.223Z,6.18
2023-01-15T23:08:16.807Z,4.10
2023-01-15T23:10:45.115Z,3.60
2023-01-15T23:13:14.234Z,3.58
2023-01-15T23:15:40.820Z,4.88
2023-01-15T23:18:07.386Z,5.07
2023-01-15T23:20:33.990Z,2.97
2023-01-15T23:23:00.544Z,3.90
2023-01-15T23:25:27.204Z,3.45
2023-01-15T23:27:55.189Z,3.67
2023-01-15T23:30:21.800Z,5.05
2023-01-15T23:32:48.314Z,4.13
2023-01-15T23:35:14.981Z,3.57
2023-01-15T23:37:41.599Z,3.90
2023-01-15T23:40:09.586Z,3.65
2023-01-15T23:42:36.088Z,4.47
2023-01-15T23:45:04.812Z,3.95
2023-01-15T23:47:31.387Z,4.53
2023-01-15T23:49:57.899Z,4.25
2023-01-15T23:52:24.494Z,5.80
2023-01-15T23:54:51.096Z,4.93
2023-01-15T23:57:17.896Z,3.60
2023-01-15T23:59:44.464Z,3.20
